Aviation Digital Data Service (ADDS)

Output produced by METARs form (0430 UTC 26 May 2018)
found at http://www.aviationweather.gov/adds/metars/
 
KHBG 252344Z 2600/2624 21004KT P6SM SCT050 BKN090 
     FM261100 00000KT 3SM BR BKN010 BKN050 
     FM261330 00000KT P6SM FEW050 SCT090 
     FM261500 19003KT P6SM VCTS SCT025 BKN050CB 
     FM261900 20006KT 6SM SHRA VCTS SCT030 BKN050CB
       
KHDN 252320Z 2600/2624 25006KT P6SM SKC 
     FM261600 14006KT P6SM SKC 
     FM261900 23010G16KT P6SM FEW250 
     FM262100 24015G25KT P6SM SCT200
       
KHIE 252339Z 2600/2624 26008KT P6SM BKN100 
     FM260800 VRB03KT P6SM -SHRA BKN060 OVC090 
     FM261300 VRB03KT P6SM -SHRA BKN045 OVC070
       
TAF KHIF 250502Z 2505/2611 10009KT 9999 SKC QNH2998INS 
     TEMPO 2505/2518 10012G20KT 
     BECMG 2517/2518 32009KT 9999 SKC QNH2986INS 
     BECMG 2602/2603 14009KT 9999 SKC QNH2986INS TX28/2521Z TN13/2511Z LAST NO AMDS AFT 2506 NEXT 2913
       
KHIO 260310Z 2603/2624 31015G22KT P6SM SCT050 SCT300 
     FM260500 31005KT P6SM SCT050 
     FM261100 VRB03KT P6SM -DZ SCT015 OVC022 
     FM261900 28006KT P6SM SCT035 BKN300
       
KHKS 252344Z 2600/2624 19004KT P6SM SCT050 BKN090 
     FM261100 18003KT 6SM BR BKN015 BKN090 
     FM261400 19003KT P6SM SCT025 BKN040 
     FM261500 19003KT P6SM VCTS SCT025 BKN040CB 
     FM261900 21004KT 6SM SHRA VCTS SCT030 BKN050CB
       
KHKY 252330Z 2600/2624 20005KT P6SM VCSH BKN060 
     FM260400 21004KT P6SM VCSH BKN030 
     FM260600 22003KT 6SM BR VCSH OVC012 
     FM260800 VRB02KT 3SM BR OVC006 
     FM261500 19004KT P6SM OVC012 
     FM262000 22006KT P6SM BKN035 
     PROB30 2620/2624 4SM -TSRA OVC025CB
       
KHLG 260255Z 2603/2624 23004KT P6SM BKN080 
     FM260400 VRB03KT P6SM SKC 
     FM262000 22005KT P6SM VCTS BKN040CB
       
KHLN 252340Z 2600/2624 07009KT P6SM VCTS SCT050CB BKN070 
     TEMPO 2600/2602 VRB15G25KT 6SM -TSRA BKN050CB 
     FM260200 VRB06KT P6SM VCSH SCT050 BKN100 
     FM260300 VRB06KT P6SM SCT100 
     FM262200 18010KT P6SM VCSH SCT060 SCT100
       
KHND 252324Z 2600/2624 23020G28KT P6SM SKC 
     FM260800 22016KT P6SM SKC 
     FM261900 22013G20KT P6SM FEW120
       
KHOB 252329Z 2600/2624 22008G18KT P6SM SKC 
     FM260300 18005KT P6SM SKC 
     FM261600 20009KT P6SM SKC
       
KHON 252320Z 2600/2624 25012G20KT P6SM SKC 
     FM260100 29005KT P6SM SKC 
     FM262300 17006KT P6SM SKC
       
TAF KHOP 260000Z 2600/2706 VRB06KT 9999 FEW095 SCT210 QNH2986INS 
     BECMG 2601/2602 VRB06KT 8000 -SHRA BKN020 QNH2985INS 
     BECMG 2607/2608 VRB06KT 9999 NSW SCT030 QNH2985INS 
     TEMPO 2618/2623 21015G25KT 6000 -TSRA SCT018 OVC030CB TX28/2621Z TN20/2613Z
       
KHOT 252320Z 2600/2624 09006KT P6SM SKC 
     TEMPO 2609/2613 4SM BR 
     FM261300 00000KT P6SM SCT250 
     FM261700 29005KT P6SM SCT040
       
KHOU 260300Z 2603/2624 17005KT P6SM SCT250 
     FM261500 21005KT P6SM SCT025 SCT140 
     FM261700 22006KT P6SM SCT040 
     FM262200 14006KT P6SM FEW050 BKN180
       
KHPN 260230Z 2603/2624 VRB04KT P6SM FEW250 
     FM261300 25006KT P6SM FEW060 SCT250 
     FM261900 22009KT P6SM SCT060 BKN250 
     FM262200 22007KT P6SM VCTS BKN050CB OVC100 AMD NOT SKED
       
KHQM 252336Z 2600/2624 27015G22KT P6SM SCT200 
     FM260500 27009KT P6SM SCT010 BKN018 
     FM260900 25006KT 4SM -DZ BR SCT008 OVC012 
     FM261700 23007KT P6SM SCT012 BKN018 
     FM262000 25012KT P6SM SCT020 SCT080
       
KHRL 252324Z 2600/2624 12012KT P6SM FEW050 
     FM260200 14006KT P6SM FEW015 
     FM261000 VRB03KT 5SM BR SKC 
     FM261500 18011KT P6SM BKN250 
     FM262100 12012KT P6SM SKC
       
KHRO 260149Z 2602/2624 10008KT P6SM TSRA OVC050CB 
     FM260500 VRB03KT P6SM FEW250 
     TEMPO 2609/2613 4SM BR 
     FM261300 29003KT P6SM SCT250 
     FM261700 29005KT P6SM SCT040
       
TAF KHST 260000Z 2600/2706 13009KT 9000 -SHRA FEW011 QNH2992INS 
     BECMG 2601/2602 13009KT 9999 NSW SCT020 QNH2992INS 
     BECMG 2614/2615 11018KT 9000 -SHRA SCT025 QNH2996INS 
     BECMG 2615/2616 10015G20KT 9000 -SHRA BKN025 QNH2988INS 
     TEMPO 2620/2701 8000 -TSRA BKN025CB 
     BECMG 2700/2701 09018KT 9000 -DZ BKN025 QNH2978INS TX27/2621Z TN23/2616Z
       
KHSV 252323Z 2600/2624 21012KT 4SM -TSRA BR BKN025CB 
     FM260100 16008KT P6SM VCTS FEW050 BKN250CB 
     FM260300 VRB02KT P6SM FEW050 BKN250 
     TEMPO 2608/2612 5SM BR BKN012 
     FM261600 16006KT P6SM SCT035
       
KHTS 260246Z 2603/2624 00000KT P6SM SCT040 
     FM260800 00000KT 5SM BR SCT040 
     FM261200 21003KT P6SM BKN035 
     FM261900 22003KT 6SM SHRA VCTS OVC035CB 
     FM262000 23004KT 5SM SHRA VCTS OVC040CB 
     FM262300 22004KT 6SM SHRA VCTS BKN060CB
       
KHUF 252328Z 2600/2624 18006KT P6SM SCT060 BKN200 
     FM260200 18004KT P6SM VCTS SCT050CB BKN200 
     FM261000 20004KT P6SM SCT050 BKN110 
     FM261400 22005KT P6SM SCT035
       
KHUM 252320Z 2600/2624 00000KT P6SM SCT110 BKN150 
     FM260700 13004KT P6SM SCT025 BKN100 
     PROB30 2611/2614 4SM -SHRA BKN020 BKN025 
     FM261400 04004KT P6SM SCT025 BKN110 
     PROB30 2618/2621 4SM TSRA BKN030CB BKN035 
     FM262100 09006KT P6SM SHRA SCT030 BKN070 
     PROB30 2621/2624 4SM TS BKN030CB
       
KHUT 252320Z 2600/2624 18007KT P6SM SKC 
     FM261800 17012KT P6SM SKC
       
KHVR 252340Z 2600/2624 22009KT P6SM SCT050 
     FM260300 22009KT P6SM VCTS SCT050CB BKN080 
     FM260600 24009KT P6SM FEW050 SCT080 
     FM262000 31010KT P6SM FEW050 SCT080
       
KHYA 260343Z 2604/2624 22010KT P6SM FEW250 WS020/25045KT 
     FM261000 22015KT 6SM BR FEW250 
     FM261700 22010G17KT P6SM SCT060 
     FM262100 21008KT P6SM BKN060 
     FM262200 21007KT 6SM BR BKN060 
     FM262300 20007KT 4SM BR VCSH BKN050
       
KHYR 260254Z 2603/2624 23011KT P6SM SCT070 
     TEMPO 2603/2606 1 1/2SM BR 
     FM261800 27006KT P6SM SCT070
       
KHYS 252320Z 2600/2624 15010KT P6SM SKC 
     FM262100 15010G20KT P6SM SKC
       
KHUL 252321Z 2600/2624 03004KT P6SM -SHRA OVC040 
     FM260300 VRB02KT P6SM VCSH BKN045 
     FM260600 VRB02KT P6SM BKN060 
     FM261100 35004KT P6SM SCT050 
     FM261800 34010G17KT P6SM SCT070 
     FM262300 36005KT P6SM SKC